Time;durP1;ratioP1;P1;durP2;ratioP2;P2;SDS_P1;SDS_P2;PMS_P1;PMS_P2;Temp;Humidity;BMP_temperature;BMP_pressure;BME280_temperature;BME280_humidity;BME280_pressure;Samples;Min_cycle;Max_cycle;Signal;HPM_P1;HPM_P2
2023/11/20 00:00:49;;;;;;;8.13;5.35;;;;;;;25.03;36.75;99349.22;4483656;32;34938;-59
2023/11/20 00:03:16;;;;;;;8.05;5.22;;;;;;;25.02;36.87;99350.31;4483532;31;34571;-59
2023/11/20 00:05:44;;;;;;;7.55;5.05;;;;;;;25.02;36.93;99363.94;4483799;32;34807;-58
2023/11/20 00:08:12;;;;;;;7.78;4.62;;;;;;;25.01;36.91;99348.66;4483662;32;33895;-58
2023/11/20 00:10:40;;;;;;;6.30;4.30;;;;;;;25.00;36.96;99355.19;4484012;32;34964;-57
2023/11/20 00:13:08;;;;;;;8.20;4.93;;;;;;;24.99;37.03;99363.59;4485776;32;33543;-58
2023/11/20 00:15:36;;;;;;;6.25;4.40;;;;;;;24.99;37.09;99371.78;4485548;32;33652;-57
2023/11/20 00:18:05;;;;;;;8.65;4.95;;;;;;;24.98;37.20;99373.69;4485439;32;34996;-57
2023/11/20 00:20:32;;;;;;;8.18;4.90;;;;;;;24.98;37.34;99379.16;4485700;32;34147;-59
2023/11/20 00:23:00;;;;;;;7.45;4.40;;;;;;;24.98;37.33;99370.16;4485326;32;34281;-58
2023/11/20 00:25:27;;;;;;;6.95;4.72;;;;;;;24.97;37.34;99366.59;4485510;32;34407;-58
2023/11/20 00:27:55;;;;;;;6.65;4.72;;;;;;;24.96;37.37;99375.87;4482466;32;34783;-59
2023/11/20 00:30:23;;;;;;;6.85;4.37;;;;;;;24.96;37.38;99380.50;4469467;32;33946;-60
2023/11/20 00:32:51;;;;;;;6.90;4.60;;;;;;;24.96;37.41;99377.78;4469671;32;33616;-58
2023/11/20 00:35:18;;;;;;;6.37;4.35;;;;;;;24.94;37.44;99364.34;4469603;32;34437;-58
2023/11/20 00:37:48;;;;;;;9.77;4.30;;;;;;;24.93;37.46;99366.25;4469476;32;34548;-60
2023/11/20 00:40:17;;;;;;;6.90;3.95;;;;;;;24.93;37.49;99373.63;4469941;32;34040;-58
2023/11/20 00:42:45;;;;;;;6.13;4.47;;;;;;;24.92;37.59;99377.44;4469618;32;34447;-58
2023/11/20 00:45:12;;;;;;;9.50;4.85;;;;;;;24.92;37.53;99380.97;4469667;32;34092;-58
2023/11/20 00:47:40;;;;;;;6.32;4.15;;;;;;;24.91;37.52;99408.53;4469877;32;34114;-58
2023/11/20 00:50:08;;;;;;;6.93;4.65;;;;;;;24.91;37.62;99424.91;4481573;32;33689;-58
2023/11/20 00:52:36;;;;;;;6.57;4.60;;;;;;;24.89;37.63;99446.97;4485144;32;34597;-58
2023/11/20 00:55:10;;;;;;;6.60;4.30;;;;;;;24.90;37.58;99466.87;4485232;32;33807;-59
2023/11/20 00:57:38;;;;;;;6.47;4.12;;;;;;;24.88;37.69;99458.97;4485160;32;34804;-59
2023/11/20 01:00:08;;;;;;;7.85;4.70;;;;;;;24.87;37.70;99424.56;4484995;32;34771;-58
2023/11/20 01:02:36;;;;;;;7.25;4.10;;;;;;;24.87;37.89;99391.81;4485176;32;33888;-58
2023/11/20 01:05:03;;;;;;;6.18;4.00;;;;;;;24.88;37.78;99366.16;4485396;32;34552;-59
2023/11/20 01:07:31;;;;;;;6.72;4.50;;;;;;;24.86;37.93;99364.78;4485206;32;34439;-58
2023/11/20 01:09:59;;;;;;;6.95;4.40;;;;;;;24.86;37.79;99351.13;4485370;32;34056;-57
2023/11/20 01:12:26;;;;;;;5.55;4.00;;;;;;;24.84;37.91;99347.81;4485014;32;33739;-57
2023/11/20 01:14:54;;;;;;;7.00;4.25;;;;;;;24.84;37.94;99345.91;4485135;32;34190;-58
2023/11/20 01:17:22;;;;;;;9.57;4.72;;;;;;;24.82;38.01;99361.72;4485119;32;34141;-58
2023/11/20 01:19:49;;;;;;;7.05;4.68;;;;;;;24.83;37.98;99374.28;4484862;32;34079;-60
2023/11/20 01:22:17;;;;;;;6.62;4.03;;;;;;;24.82;38.05;99372.62;4484554;32;33728;-58
2023/11/20 01:24:44;;;;;;;6.68;4.40;;;;;;;24.81;38.01;99391.97;4484991;32;34655;-59
2023/11/20 01:27:12;;;;;;;6.65;3.92;;;;;;;24.80;37.97;99393.03;4484847;32;34089;-59
2023/11/20 01:29:40;;;;;;;7.97;4.57;;;;;;;24.79;38.10;99383.19;4484822;32;34221;-59
2023/11/20 01:32:07;;;;;;;7.25;4.00;;;;;;;24.80;38.06;99393.03;4485291;32;33642;-60
2023/11/20 01:34:35;;;;;;;12.30;4.50;;;;;;;24.79;38.13;99389.47;4484807;32;34581;-60
2023/11/20 01:37:02;;;;;;;6.28;4.00;;;;;;;24.78;38.20;99382.38;4484908;32;33984;-58
2023/11/20 01:39:31;;;;;;;6.70;4.43;;;;;;;24.79;38.14;99358.63;4485017;32;34196;-59
2023/11/20 01:41:58;;;;;;;7.10;4.32;;;;;;;24.77;38.13;99353.44;4484739;32;33822;-60
2023/11/20 01:44:26;;;;;;;7.93;4.30;;;;;;;24.76;38.11;99349.06;4485134;32;33965;-58
2023/11/20 01:46:54;;;;;;;7.25;4.22;;;;;;;24.75;38.05;99350.09;4484883;32;34788;-58
2023/11/20 01:49:22;;;;;;;7.10;4.00;;;;;;;24.74;38.09;99350.38;4483338;32;34143;-60
2023/11/20 01:51:50;;;;;;;5.60;3.78;;;;;;;24.75;38.04;99350.09;4483723;32;33574;-57
2023/11/20 01:54:18;;;;;;;6.43;4.35;;;;;;;24.75;38.11;99352.00;4484834;32;34012;-58
2023/11/20 01:56:45;;;;;;;6.97;4.43;;;;;;;24.75;38.14;99346.56;4483478;32;34707;-59
2023/11/20 01:59:13;;;;;;;9.02;4.00;;;;;;;24.73;38.19;99346.00;4484968;32;34772;-59
2023/11/20 02:01:40;;;;;;;7.65;4.30;;;;;;;24.72;38.25;99344.34;4483500;32;34517;-60
2023/11/20 02:04:08;;;;;;;6.03;4.05;;;;;;;24.72;38.24;99349.78;4484662;32;34557;-58
2023/11/20 02:06:35;;;;;;;5.85;4.18;;;;;;;24.72;38.19;99355.25;4483530;32;35490;-58
2023/11/20 02:09:04;;;;;;;6.80;4.10;;;;;;;24.71;38.15;99345.37;4483517;32;33898;-59
2023/11/20 02:11:31;;;;;;;6.82;4.30;;;;;;;24.69;38.28;99362.84;4484613;32;33682;-58
2023/11/20 02:13:59;;;;;;;6.37;3.90;;;;;;;24.69;38.26;99357.38;4484640;32;33865;-59
2023/11/20 02:16:26;;;;;;;6.85;4.00;;;;;;;24.68;38.23;99355.72;4484669;32;34024;-58
2023/11/20 02:18:54;;;;;;;5.30;3.70;;;;;;;24.69;38.23;99359.28;4484508;32;34234;-59
2023/11/20 02:21:21;;;;;;;6.37;4.07;;;;;;;24.67;38.32;99362.28;4484563;32;33565;-59
2023/11/20 02:23:49;;;;;;;5.72;3.70;;;;;;;24.66;38.32;99363.31;4484661;32;34641;-59
2023/11/20 02:26:34;;;;;;;6.47;3.92;;;;;;;24.67;38.37;99370.44;4484398;32;34791;-59
2023/11/20 02:29:13;;;;;;;7.22;3.60;;;;;;;24.69;38.49;99370.19;4473260;32;34845;-59
2023/11/20 02:31:41;;;;;;;6.53;3.78;;;;;;;24.68;38.42;99361.19;4468807;32;33385;-61
2023/11/20 02:34:09;;;;;;;6.20;3.90;;;;;;;24.64;38.36;99364.66;4469106;32;33799;-60
2023/11/20 02:36:36;;;;;;;5.87;3.83;;;;;;;24.64;38.43;99362.75;4468820;32;33974;-60
2023/11/20 02:39:05;;;;;;;5.87;3.70;;;;;;;24.64;38.43;99364.66;4468770;32;34421;-59
2023/11/20 02:41:32;;;;;;;6.35;4.30;;;;;;;24.64;38.45;99370.09;4468895;32;33676;-59
2023/11/20 02:44:00;;;;;;;6.60;3.95;;;;;;;24.63;38.45;99360.28;4468818;32;33511;-59
2023/11/20 02:46:28;;;;;;;7.55;3.90;;;;;;;24.63;38.45;99363.84;4468788;32;34010;-59
2023/11/20 02:48:57;;;;;;;7.05;3.83;;;;;;;24.62;38.58;99364.91;4472963;32;34191;-59
2023/11/20 02:51:25;;;;;;;5.57;3.85;;;;;;;24.62;38.55;99361.31;4484357;32;33082;-58
2023/11/20 02:53:53;;;;;;;6.68;3.92;;;;;;;24.62;38.54;99366.78;4484499;32;33853;-59
2023/11/20 02:56:21;;;;;;;6.10;3.83;;;;;;;24.61;38.63;99363.22;4484425;32;34794;-59
2023/11/20 02:58:48;;;;;;;9.27;4.00;;;;;;;24.59;38.73;99359.94;4484131;32;34819;-58
2023/11/20 03:01:16;;;;;;;6.45;4.03;;;;;;;24.60;38.76;99355.31;4484383;32;34288;-60
2023/11/20 03:03:43;;;;;;;6.03;3.67;;;;;;;24.58;38.72;99358.28;4484516;32;33954;-60
2023/11/20 03:06:11;;;;;;;5.78;3.33;;;;;;;24.58;38.88;99354.72;4484096;32;34835;-59
2023/11/20 03:08:39;;;;;;;6.00;4.05;;;;;;;24.57;38.86;99353.87;4484601;32;35312;-59
2023/11/20 03:11:07;;;;;;;9.88;3.55;;;;;;;24.57;38.89;99348.41;4484233;32;33304;-59
2023/11/20 03:13:39;;;;;;;5.90;3.75;;;;;;;24.58;38.92;99362.91;4484048;32;33809;-60
2023/11/20 03:16:07;;;;;;;6.37;3.80;;;;;;;24.57;38.86;99348.41;4470040;32;34044;-59
2023/11/20 03:18:39;;;;;;;5.22;3.30;;;;;;;24.56;38.94;99354.13;4484144;32;34787;-58
2023/11/20 03:21:07;;;;;;;5.85;3.67;;;;;;;24.56;39.01;99359.59;4484028;32;33749;-59
2023/11/20 03:23:34;;;;;;;6.18;3.72;;;;;;;24.56;38.87;99374.03;4484462;32;34656;-60
2023/11/20 03:26:01;;;;;;;6.22;3.60;;;;;;;24.56;38.92;99367.78;4484113;32;34064;-58
2023/11/20 03:28:29;;;;;;;6.12;3.60;;;;;;;24.55;38.92;99357.94;4483945;32;34397;-57
2023/11/20 03:30:57;;;;;;;7.25;3.87;;;;;;;24.55;39.07;99352.47;4484109;32;33534;-58
2023/11/20 03:33:24;;;;;;;5.95;3.53;;;;;;;24.54;39.08;99338.03;4484118;32;34707;-57
2023/11/20 03:35:52;;;;;;;6.40;3.50;;;;;;;24.54;39.04;99335.28;4484071;32;34000;-56
2023/11/20 03:38:20;;;;;;;6.85;3.42;;;;;;;24.53;39.02;99319.16;4483952;32;34075;-58
2023/11/20 03:40:48;;;;;;;4.87;3.17;;;;;;;24.53;38.96;99317.28;4483908;32;33608;-57
2023/11/20 03:43:15;;;;;;;6.97;4.10;;;;;;;24.52;38.98;99309.31;4483985;32;34547;-57
2023/11/20 03:45:43;;;;;;;6.85;3.55;;;;;;;24.52;38.99;99307.41;4483370;32;33897;-58
2023/11/20 03:48:10;;;;;;;5.60;3.47;;;;;;;24.52;39.01;99307.41;4483873;32;34909;-57
2023/11/20 03:50:38;;;;;;;5.75;3.30;;;;;;;24.50;38.96;99289.66;4483997;32;33454;-58
2023/11/20 03:53:05;;;;;;;7.00;3.37;;;;;;;24.50;38.96;99284.22;4484135;32;33562;-59
2023/11/20 03:55:33;;;;;;;6.43;3.55;;;;;;;24.49;39.02;99286.13;4484143;32;33513;-59
2023/11/20 03:58:01;;;;;;;8.50;3.47;;;;;;;24.50;39.03;99276.84;4483726;32;34769;-57
2023/11/20 04:00:29;;;;;;;7.68;3.12;;;;;;;24.49;39.06;99269.75;4483729;32;33616;-56
2023/11/20 04:03:00;;;;;;;5.97;3.83;;;;;;;24.49;39.07;99282.56;4483785;32;34698;-58
2023/11/20 04:05:28;;;;;;;6.15;3.62;;;;;;;24.48;39.08;99273.56;4483620;32;34781;-57
2023/11/20 04:07:55;;;;;;;6.15;3.53;;;;;;;24.48;39.11;99267.25;4483649;32;34534;-58
2023/11/20 04:10:23;;;;;;;5.07;3.22;;;;;;;24.46;39.09;99270.22;4483751;32;33874;-59
2023/11/20 04:12:51;;;;;;;5.72;3.45;;;;;;;24.46;39.04;99281.12;4483631;32;33804;-58
2023/11/20 04:15:18;;;;;;;6.05;3.37;;;;;;;24.47;39.01;99273.78;4483525;32;33799;-56
2023/11/20 04:17:46;;;;;;;4.82;3.45;;;;;;;24.46;39.04;99269.41;4483330;32;34109;-58
2023/11/20 04:20:14;;;;;;;6.75;3.90;;;;;;;24.46;39.03;99280.31;4483334;32;33684;-58
2023/11/20 04:22:42;;;;;;;5.20;3.37;;;;;;;24.46;39.09;99278.41;4483402;32;35094;-56
2023/11/20 04:25:10;;;;;;;5.05;3.25;;;;;;;24.45;39.06;99284.13;4483297;32;34395;-58
2023/11/20 04:27:37;;;;;;;6.00;3.60;;;;;;;24.45;39.07;99292.31;4483243;32;34167;-59
2023/11/20 04:30:06;;;;;;;6.55;3.20;;;;;;;24.44;39.18;99291.47;4483400;32;33504;-57
2023/11/20 04:32:33;;;;;;;5.50;3.55;;;;;;;24.42;39.13;99293.59;4483016;32;34175;-56
2023/11/20 04:35:01;;;;;;;5.45;3.58;;;;;;;24.42;39.18;99316.25;4483285;32;33822;-58
2023/11/20 04:37:28;;;;;;;8.50;2.95;;;;;;;24.42;39.22;99329.06;4483193;32;34324;-59
2023/11/20 04:39:56;;;;;;;5.18;3.15;;;;;;;24.42;39.24;99338.06;4482980;32;34030;-58
2023/11/20 04:42:24;;;;;;;4.78;2.90;;;;;;;24.42;39.26;99331.78;4483181;32;33472;-58
2023/11/20 04:44:51;;;;;;;5.60;3.50;;;;;;;24.41;39.22;99320.06;4483112;32;35040;-59
2023/11/20 04:47:19;;;;;;;4.72;3.10;;;;;;;24.41;39.19;99328.22;4482953;32;33885;-59
2023/11/20 04:49:46;;;;;;;5.45;3.25;;;;;;;24.41;39.20;99320.06;4482946;32;33173;-59
2023/11/20 04:52:14;;;;;;;5.93;3.20;;;;;;;24.41;39.26;99320.06;4483245;32;33987;-58
2023/11/20 04:54:42;;;;;;;6.37;3.78;;;;;;;24.40;39.21;99304.78;4482800;32;34730;-60
2023/11/20 04:57:10;;;;;;;5.45;3.22;;;;;;;24.40;39.19;99306.66;4482920;32;34281;-60
2023/11/20 04:59:37;;;;;;;6.05;3.75;;;;;;;24.39;39.23;99311.31;4485067;32;33781;-61
2023/11/20 05:02:06;;;;;;;5.30;3.42;;;;;;;24.39;39.23;99300.41;4485015;31;34010;-60
2023/11/20 05:04:33;;;;;;;5.07;3.30;;;;;;;24.38;39.25;99297.88;4485318;32;33777;-59
2023/11/20 05:07:01;;;;;;;5.78;3.40;;;;;;;24.37;39.22;99298.97;4485450;32;34195;-59
2023/11/20 05:09:28;;;;;;;6.47;3.22;;;;;;;24.37;39.23;99298.97;4484977;32;34405;-59
2023/11/20 05:11:57;;;;;;;7.50;3.37;;;;;;;24.37;39.23;99296.25;4485113;32;34250;-58
2023/11/20 05:14:25;;;;;;;5.70;3.15;;;;;;;24.37;39.28;99309.88;4485397;32;33981;-59
2023/11/20 05:16:52;;;;;;;5.25;3.00;;;;;;;24.36;39.33;99306.31;4484904;32;34189;-60
2023/11/20 05:19:20;;;;;;;5.62;3.30;;;;;;;24.36;39.34;99306.31;4485366;32;33537;-59
2023/11/20 05:21:47;;;;;;;6.47;3.90;;;;;;;24.37;39.36;99307.16;4484962;32;33916;-59
2023/11/20 05:24:15;;;;;;;5.65;2.83;;;;;;;24.36;39.37;99305.47;4484875;32;35368;-59
2023/11/20 05:26:43;;;;;;;5.40;3.37;;;;;;;24.35;39.38;99304.66;4483938;32;33758;-59
2023/11/20 05:29:12;;;;;;;5.43;3.28;;;;;;;24.35;39.35;99312.00;4480232;32;34149;-59
2023/11/20 05:31:40;;;;;;;7.65;3.25;;;;;;;24.34;39.40;99313.91;4484848;32;34484;-59
2023/11/20 05:34:07;;;;;;;7.47;3.33;;;;;;;24.35;39.47;99320.19;4458060;32;33949;-60
2023/11/20 05:36:35;;;;;;;11.73;3.70;;;;;;;24.35;39.40;99320.19;4485008;32;34808;-57
2023/11/20 05:39:03;;;;;;;10.48;4.53;;;;;;;24.35;39.37;99320.19;4484953;32;33364;-60
2023/11/20 05:41:31;;;;;;;7.37;4.40;;;;;;;24.35;38.66;99310.09;4484755;32;33779;-61
2023/11/20 05:43:59;;;;;;;8.93;3.78;;;;;;;24.31;37.25;99314.37;4485095;32;33864;-60
2023/11/20 05:46:27;;;;;;;8.75;3.97;;;;;;;24.29;37.37;99319.22;4484757;32;33878;-61
2023/11/20 05:48:54;;;;;;;9.27;3.78;;;;;;;24.27;37.73;99326.03;4484755;32;34423;-61
2023/11/20 05:51:22;;;;;;;10.57;4.70;;;;;;;24.23;37.90;99328.41;4484973;32;33817;-61
2023/11/20 05:53:50;;;;;;;7.00;3.87;;;;;;;24.21;38.02;99325.09;4484678;32;34587;-61
2023/11/20 05:56:17;;;;;;;10.10;3.95;;;;;;;24.19;38.09;99327.22;4484774;32;34450;-62
2023/11/20 05:58:45;;;;;;;6.97;4.28;;;;;;;24.16;38.12;99327.72;4484642;32;34124;-61
2023/11/20 06:01:13;;;;;;;7.37;4.20;;;;;;;24.13;38.18;99322.75;4484615;31;33842;-61
2023/11/20 06:03:41;;;;;;;8.75;4.03;;;;;;;24.12;38.18;99321.09;4484809;32;33847;-61
2023/11/20 06:06:08;;;;;;;9.38;3.53;;;;;;;24.10;38.22;99317.78;4484835;32;34224;-60
2023/11/20 06:08:36;;;;;;;7.05;4.03;;;;;;;24.07;38.27;99310.09;4484341;32;33576;-61
2023/11/20 06:11:04;;;;;;;5.95;3.30;;;;;;;24.05;38.30;99304.88;4484512;32;33958;-61
2023/11/20 06:13:31;;;;;;;7.97;4.07;;;;;;;24.04;38.29;99325.03;4484379;32;34798;-61
2023/11/20 06:15:58;;;;;;;7.65;3.83;;;;;;;24.02;38.32;99315.47;4484487;32;34906;-61
2023/11/20 06:18:26;;;;;;;9.32;3.53;;;;;;;24.02;38.40;99320.91;4484667;32;33657;-60
2023/11/20 06:20:54;;;;;;;10.55;4.28;;;;;;;24.00;38.39;99320.31;4484228;32;34343;-61
2023/11/20 06:23:21;;;;;;;7.78;3.67;;;;;;;23.98;38.44;99325.19;4484631;32;34456;-61
2023/11/20 06:25:49;;;;;;;6.57;4.07;;;;;;;23.97;38.45;99337.13;4484622;32;34131;-60
2023/11/20 06:28:16;;;;;;;6.45;4.15;;;;;;;23.96;38.46;99336.31;4479202;32;34445;-60
2023/11/20 06:30:44;;;;;;;8.98;3.95;;;;;;;23.95;38.47;99340.09;4468831;32;34682;-60
2023/11/20 06:33:12;;;;;;;7.55;3.65;;;;;;;23.94;38.47;99352.06;4468905;32;34656;-61
2023/11/20 06:35:39;;;;;;;6.10;3.42;;;;;;;23.93;38.49;99355.88;4468680;32;34303;-61
2023/11/20 06:38:08;;;;;;;5.90;3.70;;;;;;;23.91;38.49;99358.81;4469194;32;33828;-61
2023/11/20 06:40:36;;;;;;;5.93;3.53;;;;;;;23.92;38.46;99365.94;4455038;32;34436;-61
2023/11/20 06:43:05;;;;;;;8.32;3.92;;;;;;;23.92;38.51;99370.53;4468620;32;34751;-60
2023/11/20 06:45:32;;;;;;;6.43;3.85;;;;;;;23.90;38.52;99368.06;4468021;32;34186;-61
2023/11/20 06:48:01;;;;;;;6.30;3.75;;;;;;;23.90;38.48;99365.34;4455043;32;33577;-61
2023/11/20 06:50:29;;;;;;;6.10;3.72;;;;;;;23.90;38.46;99368.06;4482821;32;33363;-61
2023/11/20 06:52:56;;;;;;;7.05;3.72;;;;;;;23.90;38.44;99373.53;4476225;32;34816;-60
2023/11/20 06:55:24;;;;;;;5.97;3.83;;;;;;;23.90;38.43;99373.53;4468654;32;34107;-60
2023/11/20 06:57:52;;;;;;;7.28;4.07;;;;;;;23.91;38.42;99374.34;4468563;32;34384;-60
2023/11/20 07:00:20;;;;;;;6.03;3.55;;;;;;;23.90;38.43;99372.69;4468698;32;33515;-61
2023/11/20 07:02:47;;;;;;;9.20;3.87;;;;;;;23.91;38.37;99375.16;4468576;32;33988;-61
2023/11/20 07:05:16;;;;;;;7.65;3.75;;;;;;;23.91;38.37;99374.34;4468574;32;34414;-61
2023/11/20 07:07:53;;;;;;;9.02;3.72;;;;;;;23.90;38.35;99370.78;4468673;32;33630;-61
2023/11/20 07:10:25;;;;;;;5.82;3.35;;;;;;;23.90;38.39;99368.06;4468495;32;33827;-60
2023/11/20 07:12:53;;;;;;;5.90;3.60;;;;;;;23.89;38.33;99366.41;4467777;32;33722;-60
2023/11/20 07:15:22;;;;;;;6.37;3.08;;;;;;;23.89;38.34;99360.97;4468579;32;33910;-61
2023/11/20 07:17:50;;;;;;;7.70;3.80;;;;;;;23.90;38.38;99365.34;4468367;32;34388;-60
2023/11/20 07:20:17;;;;;;;8.65;3.17;;;;;;;23.90;38.34;99359.06;4466591;32;33848;-60
2023/11/20 07:22:45;;;;;;;6.43;3.72;;;;;;;23.90;38.32;99357.16;4468548;32;35239;-60
2023/11/20 07:25:13;;;;;;;6.15;3.80;;;;;;;23.90;38.33;99356.34;4468351;32;33819;-60
2023/11/20 07:27:40;;;;;;;7.15;3.37;;;;;;;23.91;38.30;99366.16;4469777;32;33479;-61
2023/11/20 07:30:09;;;;;;;5.20;3.28;;;;;;;23.90;38.30;99364.53;4484077;32;34661;-61
2023/11/20 07:32:36;;;;;;;5.50;3.50;;;;;;;23.90;38.25;99362.63;4484011;32;34774;-61
2023/11/20 07:35:04;;;;;;;5.82;3.45;;;;;;;23.91;38.28;99366.16;4482803;32;33991;-60
2023/11/20 07:37:32;;;;;;;6.47;3.72;;;;;;;23.90;38.25;99359.06;4484056;32;33112;-61
2023/11/20 07:40:10;;;;;;;6.43;3.28;;;;;;;23.90;38.21;99351.72;4483921;32;34099;-59
2023/11/20 07:42:39;;;;;;;5.97;3.40;;;;;;;23.90;38.20;99349.00;4483841;32;33920;-61
2023/11/20 07:45:08;;;;;;;4.93;2.92;;;;;;;23.90;38.19;99345.44;4469692;32;34829;-61
2023/11/20 07:47:35;;;;;;;5.25;3.22;;;;;;;23.90;38.20;99359.06;4483956;32;34360;-60
2023/11/20 07:50:03;;;;;;;7.00;3.47;;;;;;;23.89;38.21;99352.78;4480651;32;101065;-60
2023/11/20 07:52:31;;;;;;;8.00;3.80;;;;;;;23.89;38.21;99355.53;4483770;32;33930;-60
2023/11/20 07:54:58;;;;;;;6.60;3.70;;;;;;;23.90;38.19;99353.63;4483717;32;34084;-59
2023/11/20 07:57:26;;;;;;;5.68;3.35;;;;;;;23.90;38.17;99353.63;4484138;32;33565;-60
2023/11/20 07:59:54;;;;;;;5.12;3.00;;;;;;;23.89;38.18;99355.53;4483645;32;33725;-60
2023/11/20 08:02:21;;;;;;;5.65;3.67;;;;;;;23.90;38.17;99345.44;4483665;32;33737;-59
2023/11/20 08:04:49;;;;;;;5.60;3.35;;;;;;;23.90;38.18;99342.72;4483719;32;34810;-60
2023/11/20 08:07:17;;;;;;;6.05;3.15;;;;;;;23.90;38.19;99345.44;4482198;32;33625;-60
2023/11/20 08:09:44;;;;;;;4.87;3.15;;;;;;;23.90;38.19;99349.00;4483697;32;34617;-60
2023/11/20 08:12:12;;;;;;;5.97;3.42;;;;;;;23.90;38.21;99349.00;4483577;32;34405;-60
2023/11/20 08:14:40;;;;;;;4.97;2.83;;;;;;;23.90;38.21;99345.44;4483347;32;34555;-60
2023/11/20 08:17:08;;;;;;;4.82;3.10;;;;;;;23.91;38.21;99349.81;4483539;32;33531;-61
2023/11/20 08:19:41;;;;;;;5.35;3.00;;;;;;;23.90;38.22;99346.28;4483488;32;33841;-61
2023/11/20 08:22:08;;;;;;;5.10;3.20;;;;;;;23.90;38.22;99350.91;4483500;32;33992;-60
2023/11/20 08:24:38;;;;;;;5.10;3.00;;;;;;;23.91;38.20;99358.00;4482266;32;34736;-61
2023/11/20 08:27:06;;;;;;;;;;;;;;;23.91;38.20;99355.28;4483760;32;33567;-61
2023/11/20 08:29:33;;;;;;;6.18;3.55;;;;;;;24.01;37.99;99357.38;4483371;32;34391;-60
2023/11/20 08:32:01;;;;;;;5.43;3.08;;;;;;;23.95;38.13;99361.06;4484046;32;33962;-60
2023/11/20 08:34:28;;;;;;;6.20;3.42;;;;;;;23.91;38.18;99358.81;4485214;32;34833;-61
2023/11/20 08:36:56;;;;;;;6.75;3.30;;;;;;;23.91;38.19;99358.00;4485363;32;33393;-60
2023/11/20 08:39:31;;;;;;;6.07;3.00;;;;;;;23.90;38.20;99361.78;4485452;32;34563;-61
2023/11/20 08:42:00;;;;;;;5.28;3.25;;;;;;;23.90;38.22;99345.44;4485225;32;33795;-61
2023/11/20 08:44:27;;;;;;;5.15;2.90;;;;;;;23.91;38.23;99341.66;4485252;32;34055;-61
2023/11/20 08:46:54;;;;;;;4.40;2.97;;;;;;;23.91;38.28;99344.38;4485639;32;33763;-60
2023/11/20 08:49:22;;;;;;;5.70;3.15;;;;;;;23.91;38.30;99344.38;4483688;32;33949;-60
2023/11/20 08:51:50;;;;;;;7.45;3.12;;;;;;;23.91;38.26;99339.75;4485240;32;34712;-60
2023/11/20 08:54:31;;;;;;;5.15;3.12;;;;;;;23.92;38.27;99340.56;4485201;32;34233;-60
2023/11/20 08:56:59;;;;;;;5.20;3.17;;;;;;;23.93;38.30;99350.44;4485325;32;33570;-61
2023/11/20 08:59:26;;;;;;;5.05;3.35;;;;;;;23.92;38.32;99343.28;4485480;32;34597;-61
2023/11/20 09:01:59;;;;;;;5.28;3.55;;;;;;;23.93;38.27;99350.44;4484891;31;34007;-60
2023/11/20 09:04:26;;;;;;;7.15;3.15;;;;;;;23.93;38.30;99351.25;4485272;32;34467;-60
2023/11/20 09:06:54;;;;;;;8.82;3.20;;;;;;;23.93;38.32;99336.81;4483884;32;34911;-60
2023/11/20 09:09:22;;;;;;;5.43;3.10;;;;;;;23.95;38.33;99352.91;4485158;32;33964;-61
2023/11/20 09:11:49;;;;;;;6.07;3.60;;;;;;;23.93;38.43;99351.25;4482116;32;33815;-60
2023/11/20 09:14:17;;;;;;;6.05;3.40;;;;;;;23.94;38.42;99341.19;4484801;32;34144;-61
2023/11/20 09:16:45;;;;;;;9.43;3.55;;;;;;;23.94;38.47;99341.19;4485003;32;34362;-59
2023/11/20 09:19:13;;;;;;;7.47;3.22;;;;;;;23.94;38.48;99343.91;4476194;32;34077;-60
2023/11/20 09:21:40;;;;;;;6.90;3.97;;;;;;;23.94;38.42;99335.72;4484833;32;34843;-61
2023/11/20 09:24:08;;;;;;;12.80;4.45;;;;;;;23.94;38.58;99338.44;4480159;32;34310;-61
2023/11/20 09:26:36;;;;;;;16.30;4.28;;;;;;;23.94;38.73;99338.44;4488040;31;33126;-60
2023/11/20 09:29:06;;;;;;;13.18;4.55;;;;;;;23.96;38.88;99332.75;4500614;31;34197;-61
2023/11/20 09:31:34;;;;;;;12.18;4.93;;;;;;;23.96;38.96;99341.75;4487321;31;33900;-61
2023/11/20 09:34:03;;;;;;;12.82;4.35;;;;;;;23.96;39.14;99330.84;4483869;32;34052;-60
2023/11/20 09:36:31;;;;;;;32.97;5.43;;;;;;;23.96;39.15;99335.47;4481683;32;33619;-60
2023/11/20 09:38:59;;;;;;;25.12;5.95;;;;;;;23.97;39.24;99332.53;4484721;32;34720;-60
2023/11/20 09:41:26;;;;;;;14.60;5.12;;;;;;;23.98;39.29;99342.34;4484715;32;33926;-60
2023/11/20 09:43:54;;;;;;;17.62;4.50;;;;;;;23.99;39.28;99333.09;4477897;32;34851;-59
2023/11/20 09:46:23;;;;;;;14.75;4.93;;;;;;;23.99;39.27;99327.66;4466447;32;34472;-60
2023/11/20 09:48:52;;;;;;;16.23;4.97;;;;;;;24.01;39.35;99324.69;4480733;32;33574;-60
2023/11/20 09:51:23;;;;;;;17.58;4.95;;;;;;;24.00;39.44;99323.84;4460491;32;34006;-60
2023/11/20 09:56:53;;;;;;;8.93;4.62;;;;;;;24.02;39.47;99321.72;4365574;32;20571;-61
2023/11/20 09:59:21;;;;;;;10.02;4.05;;;;;;;24.00;39.48;99326.56;4360305;32;32803;-62
2023/11/20 10:01:48;;;;;;;15.40;4.70;;;;;;;24.00;39.47;99315.69;4363203;32;33888;-61
2023/11/20 10:04:16;;;;;;;15.25;4.37;;;;;;;24.02;39.57;99318.19;4368622;32;34217;-61
2023/11/20 10:06:44;;;;;;;13.52;4.70;;;;;;;24.02;39.58;99304.56;4362365;32;33826;-62
2023/11/20 10:09:15;;;;;;;10.02;3.87;;;;;;;24.03;39.57;99307.03;4362645;32;34899;-62
2023/11/20 10:11:43;;;;;;;22.90;4.80;;;;;;;24.05;39.61;99304.88;4352148;32;33549;-63
2023/11/20 10:14:13;;;;;;;16.33;5.07;;;;;;;24.04;39.82;99307.84;4377626;32;34044;-64
2023/11/20 10:16:42;;;;;;;18.52;4.22;;;;;;;24.05;39.95;99304.88;4363932;32;33564;-62
2023/11/20 10:19:14;;;;;;;12.68;4.75;;;;;;;24.06;39.92;99300.25;4349515;32;33812;-62
2023/11/20 10:21:41;;;;;;;12.82;4.68;;;;;;;24.06;39.90;99295.66;4362503;32;33822;-62
2023/11/20 10:24:13;;;;;;;12.13;4.22;;;;;;;24.05;39.96;99302.16;4362475;32;33970;-62
2023/11/20 10:26:41;;;;;;;8.13;4.22;;;;;;;24.05;40.02;99293.16;4362658;32;33874;-63
2023/11/20 10:29:11;;;;;;;9.32;4.53;;;;;;;24.05;39.99;99288.53;4362687;32;34824;-62
2023/11/20 10:31:43;;;;;;;14.85;4.65;;;;;;;24.06;40.06;99290.19;4362581;32;34938;-63
2023/11/20 10:34:12;;;;;;;14.95;4.97;;;;;;;24.06;40.07;99279.31;4362601;32;34179;-62
2023/11/20 10:36:40;;;;;;;15.20;4.43;;;;;;;24.07;40.01;99286.41;4361828;32;33295;-62
2023/11/20 10:39:08;;;;;;;9.20;4.20;;;;;;;24.08;40.05;99282.59;4349146;32;34545;-63
2023/11/20 10:41:40;;;;;;;12.33;4.53;;;;;;;24.09;40.09;99284.25;4376175;32;34380;-63
2023/11/20 10:44:08;;;;;;;7.70;4.03;;;;;;;24.11;40.10;99286.75;4356952;32;34126;-62
2023/11/20 10:46:36;;;;;;;9.18;4.22;;;;;;;24.10;40.07;99277.72;4362543;32;33671;-63
2023/11/20 10:49:07;;;;;;;9.63;4.18;;;;;;;24.11;40.13;99279.41;4372333;32;34816;-62
2023/11/20 10:51:34;;;;;;;7.97;4.10;;;;;;;24.10;40.10;99275.00;4377448;32;33906;-62
2023/11/20 10:54:08;;;;;;;8.77;3.70;;;;;;;24.12;40.16;99274.78;4351559;32;34099;-62
2023/11/20 10:56:36;;;;;;;10.75;4.37;;;;;;;24.12;40.19;99272.88;4372306;32;34452;-63
2023/11/20 10:59:06;;;;;;;9.40;4.00;;;;;;;24.11;40.09;99273.94;4334204;33;34005;-63
2023/11/20 11:01:34;;;;;;;9.30;4.50;;;;;;;24.12;40.03;99267.41;4322187;33;34871;-61
2023/11/20 11:04:03;;;;;;;9.30;4.22;;;;;;;24.11;40.00;99262.22;4334067;33;34743;-62
2023/11/20 11:06:31;;;;;;;10.32;4.03;;;;;;;24.11;39.95;99263.03;4345670;32;33646;-61
2023/11/20 11:08:58;;;;;;;6.55;3.60;;;;;;;24.12;39.90;99255.69;4348791;32;34421;-63
2023/11/20 11:11:26;;;;;;;10.70;4.12;;;;;;;24.10;39.87;99272.25;4336694;32;33860;-63
2023/11/20 11:13:54;;;;;;;8.63;3.67;;;;;;;24.10;39.85;99266.81;4348738;32;34094;-62
2023/11/20 11:16:29;;;;;;;8.10;4.05;;;;;;;24.10;39.84;99272.25;4351649;32;33616;-62
2023/11/20 11:19:06;;;;;;;7.87;3.60;;;;;;;24.11;39.88;99265.75;4347256;32;33857;-62
2023/11/20 11:21:45;;;;;;;10.98;4.05;;;;;;;24.12;39.85;99250.25;4347207;33;34192;-63
2023/11/20 11:24:13;;;;;;;11.57;3.92;;;;;;;24.12;39.85;99253.78;4333995;33;34474;-62
2023/11/20 11:39:13;;;;;;;6.28;3.50;;;;;;;24.10;39.72;99225.09;4775956;27;33547;-84
2023/11/20 11:41:58;;;;;;;8.18;3.20;;;;;;;24.09;39.58;99210.66;4769245;27;34217;31
2023/11/20 11:59:07;;;;;;;8.48;4.70;;;;;;;24.18;38.79;99217.38;5071742;27;20053;-65
2023/11/20 12:08:09;;;;;;;10.55;4.43;;;;;;;24.42;38.74;99214.53;4552266;27;20123;-79
2023/11/20 12:29:25;;;;;;;10.38;4.87;;;;;;;25.79;37.31;99185.66;4557495;27;20150;-95
2023/11/20 12:31:53;;;;;;;19.73;4.85;;;;;;;25.95;37.13;99176.50;4482756;27;35317;-96